LFRQ/UIP METAR and TAF weather

Enter ICAO airport designator
Station Type Date Time Source
LFRQ METAR 2020/11/28 20:00 UTC NOAA

LFRQ 282000Z AUTO 06008KT CAVOK 11/08 Q1014 NOSIG


Station Type Date Time Source
LFRQ Decoded METAR 2020/11/28 20:00 UTC NOAA

Quimper, France (LFRQ) 47-58N 004-10W 94M
Nov 28, 2020 - 03:00 PM EST / 2020.11.28 2000 UTC
Wind: from the ENE (060 degrees) at 9 MPH (8 KT):0
Visibility: greater than 7 mile(s):0
Temperature: 51 F (11 C)
Dew Point: 46 F (8 C)
Relative Humidity: 81%
Pressure (altimeter): 29.94 in. Hg (1014 hPa)
ob: LFRQ 282000Z AUTO 06008KT CAVOK 11/08 Q1014 NOSIG
cycle: 20

Station Type Date Time Source
LFRQ TAF 2020/11/28 18:21 UTC NOAA

TAF LFRQ 281700Z 2818/2918 07008KT CAVOK

Example: see airport list